sensor_id;sensor_type;location;lat;lon;timestamp;pressure;altitude;pressure_sealevel;temperature;humidity
5879;BME280;2965;42.640;23.370;2022-10-23T04:02:01;95118.66;;;10.93;100.00
5879;BME280;2965;42.640;23.370;2022-10-23T04:04:26;95126.22;;;10.88;100.00
5879;BME280;2965;42.640;23.370;2022-10-23T04:06:51;95135.03;;;10.95;100.00
5879;BME280;2965;42.640;23.370;2022-10-23T04:09:17;95122.22;;;11.08;100.00
5879;BME280;2965;42.640;23.370;2022-10-23T04:11:42;95130.97;;;11.23;100.00
5879;BME280;2965;42.640;23.370;2022-10-23T04:14:10;95126.78;;;11.37;100.00
5879;BME280;2965;42.640;23.370;2022-10-23T04:16:36;95126.91;;;11.44;100.00
5879;BME280;2965;42.640;23.370;2022-10-23T04:19:02;95125.81;;;11.61;100.00
5879;BME280;2965;42.640;23.370;2022-10-23T04:21:27;95140.78;;;11.75;100.00
5879;BME280;2965;42.640;23.370;2022-10-23T04:23:52;95129.56;;;11.90;100.00
5879;BME280;2965;42.640;23.370;2022-10-23T04:26:18;95139.91;;;12.06;100.00
5879;BME280;2965;42.640;23.370;2022-10-23T04:28:43;95140.69;;;12.29;100.00
5879;BME280;2965;42.640;23.370;2022-10-23T04:31:08;95145.31;;;12.57;100.00
5879;BME280;2965;42.640;23.370;2022-10-23T04:33:34;95153.78;;;12.67;100.00
5879;BME280;2965;42.640;23.370;2022-10-23T04:35:59;95143.34;;;12.74;100.00
5879;BME280;2965;42.640;23.370;2022-10-23T04:38:24;95141.34;;;12.91;100.00
5879;BME280;2965;42.640;23.370;2022-10-23T04:40:50;95130.13;;;12.97;100.00
5879;BME280;2965;42.640;23.370;2022-10-23T04:43:16;95133.44;;;13.05;100.00
5879;BME280;2965;42.640;23.370;2022-10-23T04:45:41;95138.06;;;13.18;100.00
5879;BME280;2965;42.640;23.370;2022-10-23T04:48:06;95143.97;;;13.20;100.00
5879;BME280;2965;42.640;23.370;2022-10-23T04:50:32;95146.59;;;13.20;100.00
5879;BME280;2965;42.640;23.370;2022-10-23T04:52:57;95139.56;;;13.06;100.00
5879;BME280;2965;42.640;23.370;2022-10-23T04:55:23;95150.41;;;13.03;100.00
5879;BME280;2965;42.640;23.370;2022-10-23T04:57:50;95153.47;;;12.92;100.00
5879;BME280;2965;42.640;23.370;2022-10-23T05:00:16;95158.94;;;12.75;100.00
5879;BME280;2965;42.640;23.370;2022-10-23T05:02:41;95149.53;;;12.66;100.00
5879;BME280;2965;42.640;23.370;2022-10-23T05:05:07;95156.00;;;12.70;100.00
5879;BME280;2965;42.640;23.370;2022-10-23T05:07:34;95163.34;;;12.75;100.00
5879;BME280;2965;42.640;23.370;2022-10-23T05:09:59;95164.16;;;12.60;100.00
5879;BME280;2965;42.640;23.370;2022-10-23T05:12:25;95165.63;;;12.63;100.00
5879;BME280;2965;42.640;23.370;2022-10-23T05:14:52;95159.19;;;12.66;100.00
5879;BME280;2965;42.640;23.370;2022-10-23T05:17:31;95166.50;;;12.55;100.00
5879;BME280;2965;42.640;23.370;2022-10-23T05:22:37;95163.22;;;12.38;100.00
5879;BME280;2965;42.640;23.370;2022-10-23T05:25:04;95155.16;;;12.25;100.00
5879;BME280;2965;42.640;23.370;2022-10-23T05:27:29;95150.63;;;12.19;100.00
5879;BME280;2965;42.640;23.370;2022-10-23T05:29:55;95152.09;;;11.99;100.00
5879;BME280;2965;42.640;23.370;2022-10-23T05:32:21;95161.31;;;11.95;100.00
5879;BME280;2965;42.640;23.370;2022-10-23T05:34:48;95166.19;;;11.98;100.00
5879;BME280;2965;42.640;23.370;2022-10-23T05:37:14;95160.09;;;12.05;100.00
5879;BME280;2965;42.640;23.370;2022-10-23T05:39:40;95160.84;;;12.14;100.00
5879;BME280;2965;42.640;23.370;2022-10-23T05:42:06;95179.81;;;12.16;100.00
5879;BME280;2965;42.640;23.370;2022-10-23T05:44:31;95189.56;;;12.07;100.00
5879;BME280;2965;42.640;23.370;2022-10-23T05:46:56;95184.59;;;12.35;100.00
5879;BME280;2965;42.640;23.370;2022-10-23T05:49:25;95203.78;;;12.51;100.00
5879;BME280;2965;42.640;23.370;2022-10-23T05:51:51;95208.16;;;12.73;100.00
5879;BME280;2965;42.640;23.370;2022-10-23T05:54:16;95212.91;;;12.93;100.00
5879;BME280;2965;42.640;23.370;2022-10-23T05:56:42;95207.28;;;13.25;100.00
5879;BME280;2965;42.640;23.370;2022-10-23T05:59:07;95215.00;;;13.63;100.00
5879;BME280;2965;42.640;23.370;2022-10-23T06:01:34;95222.94;;;13.84;100.00
5879;BME280;2965;42.640;23.370;2022-10-23T06:04:00;95211.56;;;14.20;100.00
5879;BME280;2965;42.640;23.370;2022-10-23T06:06:26;95226.72;;;14.39;100.00
5879;BME280;2965;42.640;23.370;2022-10-23T06:08:51;95231.13;;;14.54;100.00
5879;BME280;2965;42.640;23.370;2022-10-23T06:11:17;95226.56;;;14.69;100.00
5879;BME280;2965;42.640;23.370;2022-10-23T06:13:43;95239.00;;;14.75;100.00
5879;BME280;2965;42.640;23.370;2022-10-23T06:16:11;95244.44;;;14.74;100.00
5879;BME280;2965;42.640;23.370;2022-10-23T06:18:37;95248.53;;;14.83;100.00
5879;BME280;2965;42.640;23.370;2022-10-23T06:21:03;95242.19;;;14.99;100.00
5879;BME280;2965;42.640;23.370;2022-10-23T06:23:33;95251.84;;;14.92;100.00
5879;BME280;2965;42.640;23.370;2022-10-23T06:25:58;95246.13;;;14.81;100.00
5879;BME280;2965;42.640;23.370;2022-10-23T06:28:24;95242.09;;;14.85;100.00
5879;BME280;2965;42.640;23.370;2022-10-23T06:30:49;95232.09;;;15.09;100.00
5879;BME280;2965;42.640;23.370;2022-10-23T06:33:15;95236.69;;;15.28;100.00
5879;BME280;2965;42.640;23.370;2022-10-23T06:35:40;95231.13;;;15.51;100.00
5879;BME280;2965;42.640;23.370;2022-10-23T06:38:06;95226.72;;;15.58;100.00
5879;BME280;2965;42.640;23.370;2022-10-23T06:40:33;95229.22;;;15.73;100.00
5879;BME280;2965;42.640;23.370;2022-10-23T06:42:59;95235.72;;;15.84;100.00
5879;BME280;2965;42.640;23.370;2022-10-23T06:45:24;95237.00;;;15.95;100.00
5879;BME280;2965;42.640;23.370;2022-10-23T06:47:49;95239.84;;;16.06;100.00
5879;BME280;2965;42.640;23.370;2022-10-23T06:50:16;95244.34;;;16.19;100.00
5879;BME280;2965;42.640;23.370;2022-10-23T06:52:41;95232.19;;;16.25;100.00
5879;BME280;2965;42.640;23.370;2022-10-23T06:55:07;95231.38;;;16.31;100.00
5879;BME280;2965;42.640;23.370;2022-10-23T06:57:32;95243.16;;;16.42;100.00
5879;BME280;2965;42.640;23.370;2022-10-23T06:59:58;95241.53;;;16.40;100.00
5879;BME280;2965;42.640;23.370;2022-10-23T07:02:23;95244.00;;;16.49;100.00
5879;BME280;2965;42.640;23.370;2022-10-23T07:04:49;95243.16;;;16.55;100.00
5879;BME280;2965;42.640;23.370;2022-10-23T07:07:14;95240.75;;;16.53;100.00
5879;BME280;2965;42.640;23.370;2022-10-23T07:09:39;95241.97;;;16.64;100.00
5879;BME280;2965;42.640;23.370;2022-10-23T07:12:05;95237.09;;;16.68;100.00
5879;BME280;2965;42.640;23.370;2022-10-23T07:14:30;95236.69;;;16.77;100.00
5879;BME280;2965;42.640;23.370;2022-10-23T07:16:57;95239.56;;;16.82;100.00
5879;BME280;2965;42.640;23.370;2022-10-23T07:19:22;95233.06;;;16.92;100.00
5879;BME280;2965;42.640;23.370;2022-10-23T07:21:47;95231.81;;;16.94;100.00
5879;BME280;2965;42.640;23.370;2022-10-23T07:24:14;95244.00;;;17.02;100.00
5879;BME280;2965;42.640;23.370;2022-10-23T07:26:39;95247.66;;;17.14;100.00
5879;BME280;2965;42.640;23.370;2022-10-23T07:29:05;95250.09;;;17.22;100.00
5879;BME280;2965;42.640;23.370;2022-10-23T07:31:31;95253.31;;;17.24;100.00
5879;BME280;2965;42.640;23.370;2022-10-23T07:33:57;95243.34;;;17.26;100.00
5879;BME280;2965;42.640;23.370;2022-10-23T07:36:23;95248.59;;;17.39;100.00
5879;BME280;2965;42.640;23.370;2022-10-23T07:38:49;95245.56;;;17.43;100.00
5879;BME280;2965;42.640;23.370;2022-10-23T07:41:15;95253.09;;;17.46;100.00
5879;BME280;2965;42.640;23.370;2022-10-23T07:43:41;95252.84;;;17.54;100.00
5879;BME280;2965;42.640;23.370;2022-10-23T07:46:06;95252.47;;;17.50;100.00
5879;BME280;2965;42.640;23.370;2022-10-23T07:48:36;95257.28;;;17.67;100.00
5879;BME280;2965;42.640;23.370;2022-10-23T07:51:06;95252.00;;;17.60;100.00
5879;BME280;2965;42.640;23.370;2022-10-23T07:53:33;95249.97;;;17.75;100.00
5879;BME280;2965;42.640;23.370;2022-10-23T07:56:08;95246.25;;;17.89;100.00
5879;BME280;2965;42.640;23.370;2022-10-23T07:58:34;95242.72;;;18.02;100.00
5879;BME280;2965;42.640;23.370;2022-10-23T08:01:00;95239.88;;;17.97;100.00
5879;BME280;2965;42.640;23.370;2022-10-23T08:03:29;95246.50;;;18.13;100.00
5879;BME280;2965;42.640;23.370;2022-10-23T08:05:55;95249.91;;;18.27;100.00
5879;BME280;2965;42.640;23.370;2022-10-23T08:08:24;95269.59;;;18.37;100.00
5879;BME280;2965;42.640;23.370;2022-10-23T08:39:16;95254.03;;;18.79;91.75
5879;BME280;2965;42.640;23.370;2022-10-23T08:41:47;95256.53;;;18.99;90.87
5879;BME280;2965;42.640;23.370;2022-10-23T08:44:27;95249.09;;;19.08;92.26
5879;BME280;2965;42.640;23.370;2022-10-23T08:47:08;95246.84;;;19.30;91.08
5879;BME280;2965;42.640;23.370;2022-10-23T08:49:56;95246.50;;;19.26;89.50
5879;BME280;2965;42.640;23.370;2022-10-23T08:57:57;95239.91;;;19.72;94.12
5879;BME280;2965;42.640;23.370;2022-10-23T09:00:25;95247.28;;;19.70;89.03
5879;BME280;2965;42.640;23.370;2022-10-23T09:02:52;95234.66;;;19.65;88.03
5879;BME280;2965;42.640;23.370;2022-10-23T09:05:25;95260.56;;;19.70;87.79
5879;BME280;2965;42.640;23.370;2022-10-23T09:11:04;95255.66;;;19.85;87.49
5879;BME280;2965;42.640;23.370;2022-10-23T09:13:37;95253.25;;;20.14;83.24
5879;BME280;2965;42.640;23.370;2022-10-23T09:18:47;95237.06;;;20.04;80.89
5879;BME280;2965;42.640;23.370;2022-10-23T09:21:12;95238.97;;;20.15;81.89
5879;BME280;2965;42.640;23.370;2022-10-23T09:23:38;95235.31;;;20.39;81.42
5879;BME280;2965;42.640;23.370;2022-10-23T09:26:15;95255.69;;;20.46;79.99
5879;BME280;2965;42.640;23.370;2022-10-23T09:31:12;95232.19;;;20.61;78.57
5879;BME280;2965;42.640;23.370;2022-10-23T09:33:38;95220.88;;;20.77;80.23
5879;BME280;2965;42.640;23.370;2022-10-23T09:41:12;95212.69;;;20.90;78.71
5879;BME280;2965;42.640;23.370;2022-10-23T09:43:37;95218.00;;;21.14;79.81
5879;BME280;2965;42.640;23.370;2022-10-23T09:46:05;95216.97;;;20.91;76.06
5879;BME280;2965;42.640;23.370;2022-10-23T09:48:32;95220.31;;;21.22;76.49
5879;BME280;2965;42.640;23.370;2022-10-23T09:51:00;95223.94;;;21.39;76.35
5879;BME280;2965;42.640;23.370;2022-10-23T09:56:06;95216.75;;;21.52;74.46
5879;BME280;2965;42.640;23.370;2022-10-23T09:58:39;95216.25;;;21.55;74.84
5879;BME280;2965;42.640;23.370;2022-10-23T10:01:21;95231.13;;;21.79;71.60
5879;BME280;2965;42.640;23.370;2022-10-23T10:03:48;95222.53;;;21.89;70.82
5879;BME280;2965;42.640;23.370;2022-10-23T10:06:29;95216.69;;;22.15;69.87
5879;BME280;2965;42.640;23.370;2022-10-23T10:09:01;95221.88;;;22.10;69.30
5879;BME280;2965;42.640;23.370;2022-10-23T10:14:26;95208.22;;;22.35;64.96
5879;BME280;2965;42.640;23.370;2022-10-23T10:17:01;95209.19;;;22.58;63.73
5879;BME280;2965;42.640;23.370;2022-10-23T10:22:16;95206.91;;;22.83;62.84
5879;BME280;2965;42.640;23.370;2022-10-23T10:24:54;95204.09;;;22.73;61.11
5879;BME280;2965;42.640;23.370;2022-10-23T10:30:17;95200.72;;;22.95;57.73
5879;BME280;2965;42.640;23.370;2022-10-23T10:32:54;95197.06;;;23.01;58.14
5879;BME280;2965;42.640;23.370;2022-10-23T10:35:27;95193.19;;;22.91;55.37
5879;BME280;2965;42.640;23.370;2022-10-23T10:38:24;95185.25;;;22.97;56.78
5879;BME280;2965;42.640;23.370;2022-10-23T10:51:36;95195.19;;;23.18;51.02
5879;BME280;2965;42.640;23.370;2022-10-23T10:54:31;95196.88;;;23.24;52.52
5879;BME280;2965;42.640;23.370;2022-10-23T10:56:59;95187.94;;;23.35;52.84
5879;BME280;2965;42.640;23.370;2022-10-23T10:59:30;95185.84;;;23.59;52.93
5879;BME280;2965;42.640;23.370;2022-10-23T11:02:20;95188.25;;;24.27;54.87
5879;BME280;2965;42.640;23.370;2022-10-23T11:04:59;95181.16;;;23.88;50.99
5879;BME280;2965;42.640;23.370;2022-10-23T11:07:33;95182.34;;;23.76;51.83
5879;BME280;2965;42.640;23.370;2022-10-23T11:10:03;95178.13;;;24.07;53.40
5879;BME280;2965;42.640;23.370;2022-10-23T11:12:29;95174.78;;;23.95;51.70
5879;BME280;2965;42.640;23.370;2022-10-23T11:14:55;95169.69;;;24.15;52.01
5879;BME280;2965;42.640;23.370;2022-10-23T11:17:36;95165.28;;;24.04;52.04
5879;BME280;2965;42.640;23.370;2022-10-23T11:20:04;95161.78;;;23.76;50.55
5879;BME280;2965;42.640;23.370;2022-10-23T11:22:37;95157.97;;;24.21;50.62
5879;BME280;2965;42.640;23.370;2022-10-23T11:35:53;95146.56;;;24.04;51.54
5879;BME280;2965;42.640;23.370;2022-10-23T11:38:32;95128.06;;;23.48;53.12
5879;BME280;2965;42.640;23.370;2022-10-23T11:41:01;95139.53;;;23.92;54.83
5879;BME280;2965;42.640;23.370;2022-10-23T11:43:31;95126.44;;;24.18;50.99
5879;BME280;2965;42.640;23.370;2022-10-23T11:46:09;95115.53;;;23.98;51.03
5879;BME280;2965;42.640;23.370;2022-10-23T11:48:44;95117.75;;;23.79;52.92
5879;BME280;2965;42.640;23.370;2022-10-23T11:51:44;95117.41;;;24.29;53.21
5879;BME280;2965;42.640;23.370;2022-10-23T11:56:49;95115.31;;;24.31;52.46
5879;BME280;2965;42.640;23.370;2022-10-23T11:59:29;95118.00;;;24.31;49.88
5879;BME280;2965;42.640;23.370;2022-10-23T12:01:57;95111.84;;;24.63;52.41
5879;BME280;2965;42.640;23.370;2022-10-23T12:04:48;95121.19;;;25.03;50.57
5879;BME280;2965;42.640;23.370;2022-10-23T12:07:32;95122.47;;;24.26;50.22
5879;BME280;2965;42.640;23.370;2022-10-23T12:10:04;95122.69;;;24.19;50.49
5879;BME280;2965;42.640;23.370;2022-10-23T12:12:36;95115.63;;;24.08;49.93
5879;BME280;2965;42.640;23.370;2022-10-23T12:15:20;95112.13;;;24.34;49.64
5879;BME280;2965;42.640;23.370;2022-10-23T12:17:47;95106.75;;;24.61;52.64
5879;BME280;2965;42.640;23.370;2022-10-23T12:25:11;95112.75;;;24.14;50.25
5879;BME280;2965;42.640;23.370;2022-10-23T12:27:45;95106.56;;;24.09;50.43
5879;BME280;2965;42.640;23.370;2022-10-23T12:30:20;95110.09;;;24.14;49.60
5879;BME280;2965;42.640;23.370;2022-10-23T12:38:26;95112.34;;;24.97;48.50
5879;BME280;2965;42.640;23.370;2022-10-23T12:41:09;95106.63;;;24.46;47.58
5879;BME280;2965;42.640;23.370;2022-10-23T12:43:36;95106.38;;;24.48;48.08
5879;BME280;2965;42.640;23.370;2022-10-23T12:46:28;95111.00;;;24.30;49.01
5879;BME280;2965;42.640;23.370;2022-10-23T12:48:55;95107.44;;;24.47;49.30
5879;BME280;2965;42.640;23.370;2022-10-23T12:51:32;95108.47;;;24.40;47.99
5879;BME280;2965;42.640;23.370;2022-10-23T12:53:58;95103.50;;;24.54;47.60
5879;BME280;2965;42.640;23.370;2022-10-23T12:56:25;95112.72;;;24.74;47.89
5879;BME280;2965;42.640;23.370;2022-10-23T12:58:53;95118.09;;;24.79;48.16
5879;BME280;2965;42.640;23.370;2022-10-23T13:01:31;95117.19;;;24.63;47.27
5879;BME280;2965;42.640;23.370;2022-10-23T13:04:33;95121.44;;;24.59;48.07
5879;BME280;2965;42.640;23.370;2022-10-23T13:07:00;95121.38;;;24.49;46.55
5879;BME280;2965;42.640;23.370;2022-10-23T13:09:33;95126.06;;;24.69;47.52
5879;BME280;2965;42.640;23.370;2022-10-23T13:12:01;95116.16;;;24.69;47.16
5879;BME280;2965;42.640;23.370;2022-10-23T13:14:36;95117.50;;;24.66;46.79
5879;BME280;2965;42.640;23.370;2022-10-23T13:17:09;95119.19;;;24.46;48.84
5879;BME280;2965;42.640;23.370;2022-10-23T13:19:36;95122.97;;;24.50;47.84
5879;BME280;2965;42.640;23.370;2022-10-23T13:22:16;95110.94;;;24.52;47.49
5879;BME280;2965;42.640;23.370;2022-10-23T13:24:43;95119.66;;;24.37;48.52
5879;BME280;2965;42.640;23.370;2022-10-23T13:27:33;95114.91;;;24.45;47.83
5879;BME280;2965;42.640;23.370;2022-10-23T13:29:59;95109.75;;;24.70;48.21
5879;BME280;2965;42.640;23.370;2022-10-23T13:32:27;95115.69;;;24.77;46.63
5879;BME280;2965;42.640;23.370;2022-10-23T13:34:54;95112.38;;;24.65;45.59
5879;BME280;2965;42.640;23.370;2022-10-23T13:37:29;95118.94;;;24.84;45.85
5879;BME280;2965;42.640;23.370;2022-10-23T13:40:03;95120.91;;;24.99;46.27
5879;BME280;2965;42.640;23.370;2022-10-23T13:42:29;95121.44;;;24.59;46.35
5879;BME280;2965;42.640;23.370;2022-10-23T13:44:55;95122.63;;;24.78;46.77
5879;BME280;2965;42.640;23.370;2022-10-23T13:47:20;95114.13;;;24.86;44.67
5879;BME280;2965;42.640;23.370;2022-10-23T13:49:46;95117.91;;;24.90;45.55
5879;BME280;2965;42.640;23.370;2022-10-23T13:52:19;95122.75;;;24.94;44.93
5879;BME280;2965;42.640;23.370;2022-10-23T13:54:46;95120.66;;;24.31;47.03
5879;BME280;2965;42.640;23.370;2022-10-23T13:57:13;95124.41;;;24.03;47.57
5879;BME280;2965;42.640;23.370;2022-10-23T13:59:39;95121.16;;;24.28;46.89
5879;BME280;2965;42.640;23.370;2022-10-23T14:02:15;95124.38;;;24.30;46.66
5879;BME280;2965;42.640;23.370;2022-10-23T14:04:41;95118.88;;;23.83;48.44
5879;BME280;2965;42.640;23.370;2022-10-23T14:07:07;95117.50;;;23.58;47.99
5879;BME280;2965;42.640;23.370;2022-10-23T14:09:32;95103.81;;;23.77;48.62
5879;BME280;2965;42.640;23.370;2022-10-23T14:11:58;95112.72;;;23.82;48.65
5879;BME280;2965;42.640;23.370;2022-10-23T14:14:23;95117.59;;;23.90;49.89
5879;BME280;2965;42.640;23.370;2022-10-23T14:16:48;95110.19;;;23.98;50.37
5879;BME280;2965;42.640;23.370;2022-10-23T14:19:14;95113.34;;;23.95;50.20
5879;BME280;2965;42.640;23.370;2022-10-23T14:21:39;95113.22;;;23.35;47.56
5879;BME280;2965;42.640;23.370;2022-10-23T14:24:04;95110.84;;;23.61;49.58
5879;BME280;2965;42.640;23.370;2022-10-23T14:26:30;95112.91;;;24.03;50.91
5879;BME280;2965;42.640;23.370;2022-10-23T14:28:57;95114.66;;;23.43;49.34
5879;BME280;2965;42.640;23.370;2022-10-23T14:31:22;95115.22;;;23.67;49.12
5879;BME280;2965;42.640;23.370;2022-10-23T14:33:54;95114.00;;;23.58;51.42
5879;BME280;2965;42.640;23.370;2022-10-23T14:36:20;95114.94;;;22.86;50.11
5879;BME280;2965;42.640;23.370;2022-10-23T14:38:46;95118.09;;;23.00;53.10
5879;BME280;2965;42.640;23.370;2022-10-23T14:41:13;95111.69;;;23.01;54.33
5879;BME280;2965;42.640;23.370;2022-10-23T14:43:39;95115.97;;;23.02;54.31
5879;BME280;2965;42.640;23.370;2022-10-23T14:46:16;95114.41;;;22.33;53.47
5879;BME280;2965;42.640;23.370;2022-10-23T14:48:42;95117.94;;;22.22;55.79
5879;BME280;2965;42.640;23.370;2022-10-23T14:51:17;95115.88;;;21.96;58.88
5879;BME280;2965;42.640;23.370;2022-10-23T14:53:42;95118.69;;;21.89;61.11
5879;BME280;2965;42.640;23.370;2022-10-23T14:56:08;95122.06;;;21.84;63.30
5879;BME280;2965;42.640;23.370;2022-10-23T14:58:33;95121.00;;;21.85;63.62
5879;BME280;2965;42.640;23.370;2022-10-23T15:00:59;95125.41;;;22.08;63.77
5879;BME280;2965;42.640;23.370;2022-10-23T15:03:26;95124.41;;;21.52;65.79
5879;BME280;2965;42.640;23.370;2022-10-23T15:05:52;95128.53;;;21.60;67.38
5879;BME280;2965;42.640;23.370;2022-10-23T15:08:17;95123.41;;;21.70;65.81
5879;BME280;2965;42.640;23.370;2022-10-23T15:10:43;95124.06;;;21.77;65.17
5879;BME280;2965;42.640;23.370;2022-10-23T15:23:01;95133.69;;;21.78;65.42
5879;BME280;2965;42.640;23.370;2022-10-23T15:25:28;95136.50;;;21.60;70.23
5879;BME280;2965;42.640;23.370;2022-10-23T15:27:53;95135.47;;;21.61;72.24
5879;BME280;2965;42.640;23.370;2022-10-23T15:30:18;95133.75;;;21.55;75.55
5879;BME280;2965;42.640;23.370;2022-10-23T15:32:44;95139.78;;;21.50;71.72
5879;BME280;2965;42.640;23.370;2022-10-23T15:35:09;95148.47;;;21.46;75.05
5879;BME280;2965;42.640;23.370;2022-10-23T15:37:35;95139.94;;;21.44;71.77
5879;BME280;2965;42.640;23.370;2022-10-23T15:40:00;95143.06;;;21.40;71.40
5879;BME280;2965;42.640;23.370;2022-10-23T15:42:26;95146.88;;;21.45;72.71
5879;BME280;2965;42.640;23.370;2022-10-23T15:44:51;95151.75;;;21.01;72.56
5879;BME280;2965;42.640;23.370;2022-10-23T15:47:17;95162.53;;;20.94;76.88
5879;BME280;2965;42.640;23.370;2022-10-23T15:49:42;95148.63;;;20.57;78.59
5879;BME280;2965;42.640;23.370;2022-10-23T15:52:08;95150.41;;;20.21;77.46
5879;BME280;2965;42.640;23.370;2022-10-23T15:54:34;95148.63;;;20.03;75.37
5879;BME280;2965;42.640;23.370;2022-10-23T15:57:00;95159.38;;;19.78;77.24
5879;BME280;2965;42.640;23.370;2022-10-23T15:59:27;95152.63;;;19.64;79.57
5879;BME280;2965;42.640;23.370;2022-10-23T16:01:53;95153.13;;;19.54;79.60
5879;BME280;2965;42.640;23.370;2022-10-23T16:04:20;95155.22;;;19.34;82.75
5879;BME280;2965;42.640;23.370;2022-10-23T16:06:45;95157.06;;;19.33;87.38
5879;BME280;2965;42.640;23.370;2022-10-23T16:09:11;95146.16;;;19.23;82.89
5879;BME280;2965;42.640;23.370;2022-10-23T16:11:37;95150.56;;;19.11;82.39
5879;BME280;2965;42.640;23.370;2022-10-23T16:14:04;95154.25;;;18.92;81.36
5879;BME280;2965;42.640;23.370;2022-10-23T16:16:31;95154.00;;;18.75;83.71
5879;BME280;2965;42.640;23.370;2022-10-23T16:19:01;95156.09;;;18.66;84.33
5879;BME280;2965;42.640;23.370;2022-10-23T16:21:29;95158.59;;;18.61;84.32
5879;BME280;2965;42.640;23.370;2022-10-23T16:23:56;95159.00;;;18.58;85.43
5879;BME280;2965;42.640;23.370;2022-10-23T16:26:21;95153.94;;;18.56;86.08
5879;BME280;2965;42.640;23.370;2022-10-23T16:29:01;95159.00;;;18.58;87.84
5879;BME280;2965;42.640;23.370;2022-10-23T16:31:27;95157.41;;;18.57;86.51
5879;BME280;2965;42.640;23.370;2022-10-23T16:33:59;95169.88;;;18.25;85.93
5879;BME280;2965;42.640;23.370;2022-10-23T16:36:25;95158.38;;;18.06;87.86
5879;BME280;2965;42.640;23.370;2022-10-23T16:38:50;95169.16;;;18.11;90.14
5879;BME280;2965;42.640;23.370;2022-10-23T16:41:16;95177.69;;;18.13;89.06
5879;BME280;2965;42.640;23.370;2022-10-23T16:43:41;95167.59;;;17.97;88.48
5879;BME280;2965;42.640;23.370;2022-10-23T16:46:11;95180.25;;;17.95;90.88
5879;BME280;2965;42.640;23.370;2022-10-23T16:48:37;95178.25;;;17.83;89.59
5879;BME280;2965;42.640;23.370;2022-10-23T16:51:08;95177.44;;;17.89;90.25
5879;BME280;2965;42.640;23.370;2022-10-23T16:53:34;95185.97;;;17.92;90.45
5879;BME280;2965;42.640;23.370;2022-10-23T16:56:03;95174.53;;;17.98;90.50
5879;BME280;2965;42.640;23.370;2022-10-23T16:58:28;95182.25;;;17.99;89.59
5879;BME280;2965;42.640;23.370;2022-10-23T17:01:02;95180.75;;;17.78;89.94
5879;BME280;2965;42.640;23.370;2022-10-23T17:03:29;95189.50;;;17.72;90.47
5879;BME280;2965;42.640;23.370;2022-10-23T17:06:02;95185.66;;;17.68;90.81
5879;BME280;2965;42.640;23.370;2022-10-23T17:08:28;95184.44;;;17.64;92.07
5879;BME280;2965;42.640;23.370;2022-10-23T17:11:09;95193.47;;;17.50;93.41
5879;BME280;2965;42.640;23.370;2022-10-23T17:13:38;95191.69;;;17.30;96.07
5879;BME280;2965;42.640;23.370;2022-10-23T17:16:05;95193.28;;;17.38;96.66
5879;BME280;2965;42.640;23.370;2022-10-23T17:18:31;95194.97;;;17.19;97.11
5879;BME280;2965;42.640;23.370;2022-10-23T17:20:56;95199.31;;;16.87;100.00
5879;BME280;2965;42.640;23.370;2022-10-23T17:23:22;95196.88;;;16.65;100.00
5879;BME280;2965;42.640;23.370;2022-10-23T17:25:47;95187.53;;;16.76;100.00
5879;BME280;2965;42.640;23.370;2022-10-23T17:28:13;95194.41;;;16.37;100.00
5879;BME280;2965;42.640;23.370;2022-10-23T17:30:39;95179.78;;;16.15;100.00
5879;BME280;2965;42.640;23.370;2022-10-23T17:33:04;95183.47;;;16.27;100.00
5879;BME280;2965;42.640;23.370;2022-10-23T17:35:29;95192.81;;;16.50;100.00
5879;BME280;2965;42.640;23.370;2022-10-23T17:37:55;95197.69;;;16.39;100.00
5879;BME280;2965;42.640;23.370;2022-10-23T17:40:21;95189.34;;;16.16;100.00
5879;BME280;2965;42.640;23.370;2022-10-23T17:42:46;95196.88;;;16.26;100.00
5879;BME280;2965;42.640;23.370;2022-10-23T17:45:12;95197.69;;;16.26;100.00
5879;BME280;2965;42.640;23.370;2022-10-23T17:47:37;95203.75;;;16.47;100.00
5879;BME280;2965;42.640;23.370;2022-10-23T17:50:06;95194.03;;;16.54;100.00
5879;BME280;2965;42.640;23.370;2022-10-23T17:52:34;95198.09;;;16.63;100.00
5879;BME280;2965;42.640;23.370;2022-10-23T17:55:00;95197.69;;;16.66;98.92
5879;BME280;2965;42.640;23.370;2022-10-23T17:57:25;95198.09;;;16.70;98.34
5879;BME280;2965;42.640;23.370;2022-10-23T17:59:51;95198.88;;;17.10;100.00
5879;BME280;2965;42.640;23.370;2022-10-23T18:02:16;95189.69;;;17.19;100.00
5879;BME280;2965;42.640;23.370;2022-10-23T18:04:42;95194.81;;;17.14;94.22
5879;BME280;2965;42.640;23.370;2022-10-23T18:07:07;95191.34;;;17.13;93.93
5879;BME280;2965;42.640;23.370;2022-10-23T18:09:32;95195.81;;;17.06;93.36
5879;BME280;2965;42.640;23.370;2022-10-23T18:11:58;95196.03;;;17.05;93.11
5879;BME280;2965;42.640;23.370;2022-10-23T18:14:23;95194.81;;;17.01;93.21
5879;BME280;2965;42.640;23.370;2022-10-23T18:16:49;95192.00;;;16.96;93.88
5879;BME280;2965;42.640;23.370;2022-10-23T18:19:15;95196.47;;;16.88;94.67
5879;BME280;2965;42.640;23.370;2022-10-23T18:21:42;95194.88;;;16.74;97.95
5879;BME280;2965;42.640;23.370;2022-10-23T18:24:07;95190.34;;;16.42;100.00
5879;BME280;2965;42.640;23.370;2022-10-23T18:26:33;95188.31;;;16.24;100.00
5879;BME280;2965;42.640;23.370;2022-10-23T18:28:59;95192.19;;;16.08;100.00
5879;BME280;2965;42.640;23.370;2022-10-23T18:31:27;95198.06;;;16.03;100.00
5879;BME280;2965;42.640;23.370;2022-10-23T18:33:59;95199.66;;;15.98;100.00
5879;BME280;2965;42.640;23.370;2022-10-23T18:36:31;95205.72;;;15.92;100.00
5879;BME280;2965;42.640;23.370;2022-10-23T18:38:57;95199.84;;;15.89;100.00
5879;BME280;2965;42.640;23.370;2022-10-23T18:41:23;95199.63;;;15.84;100.00
5879;BME280;2965;42.640;23.370;2022-10-23T18:43:50;95204.47;;;15.74;100.00
5879;BME280;2965;42.640;23.370;2022-10-23T18:46:16;95202.63;;;15.68;100.00
5879;BME280;2965;42.640;23.370;2022-10-23T18:48:42;95207.47;;;15.64;100.00
5879;BME280;2965;42.640;23.370;2022-10-23T18:51:20;95208.03;;;15.60;100.00
5879;BME280;2965;42.640;23.370;2022-10-23T18:53:46;95212.34;;;15.26;100.00
5879;BME280;2965;42.640;23.370;2022-10-23T18:56:15;95214.38;;;15.31;100.00
5879;BME280;2965;42.640;23.370;2022-10-23T18:58:46;95214.06;;;15.41;100.00
5879;BME280;2965;42.640;23.370;2022-10-23T19:01:11;95216.44;;;15.35;100.00